KPCD/PCD METAR and TAF weather

Enter ICAO airport designator
Station Type Date Time Source
KPCD METAR 2021/05/11 16:35 UTC NOAA

KPCD 111635Z AUTO 03010KT 010V080 10SM CLR 18/07 A3026 RMK AO2 T01800071


Station Type Date Time Source
KPCD Decoded METAR 2021/05/11 16:35 UTC NOAA

Station name not available
May 11, 2021 - 12:35 PM EDT / 2021.05.11 1635 UTC
Wind: from the NNE (030 degrees) at 12 MPH (10 KT) (direction variable):0
Visibility: 10 mile(s):0
Sky conditions: clear
Temperature: 64.4 F (18.0 C)
Dew Point: 44.8 F (7.1 C)
Relative Humidity: 48%
Pressure (altimeter): 30.26 in. Hg (1024 hPa)
ob: KPCD 111635Z AUTO 03010KT 010V080 10SM CLR 18/07 A3026 RMK AO2 T01800071
cycle: 16

Station Type Date Time Source
KPCD TAF UTC NOAA

Error!

Example: see airport list